sensor_id;sensor_type;location;lat;lon;timestamp;pressure;altitude;pressure_sealevel;temperature;humidity
76156;BME280;64906;51.290;7.348;2023-06-26T00:00:21;98514.78;;;27.28;44.22
76156;BME280;64906;51.290;7.348;2023-06-26T00:02:46;98510.84;;;27.29;44.35
76156;BME280;64906;51.290;7.348;2023-06-26T00:05:11;98508.09;;;27.29;44.12
76156;BME280;64906;51.290;7.348;2023-06-26T00:07:38;98506.25;;;27.33;44.22
76156;BME280;64906;51.290;7.348;2023-06-26T00:10:04;98500.13;;;27.28;44.43
76156;BME280;64906;51.290;7.348;2023-06-26T00:12:30;98506.78;;;27.27;44.38
76156;BME280;64906;51.290;7.348;2023-06-26T00:14:56;98511.81;;;27.33;44.15
76156;BME280;64906;51.290;7.348;2023-06-26T00:17:21;98505.91;;;27.35;44.13
76156;BME280;64906;51.290;7.348;2023-06-26T00:19:47;98505.31;;;27.29;44.31
76156;BME280;64906;51.290;7.348;2023-06-26T00:22:12;98508.91;;;27.30;44.25
76156;BME280;64906;51.290;7.348;2023-06-26T00:24:38;98507.63;;;27.27;44.44
76156;BME280;64906;51.290;7.348;2023-06-26T00:27:03;98506.31;;;27.25;44.56
76156;BME280;64906;51.290;7.348;2023-06-26T00:29:28;98505.66;;;27.28;44.26
76156;BME280;64906;51.290;7.348;2023-06-26T00:31:54;98503.72;;;27.28;44.12
76156;BME280;64906;51.290;7.348;2023-06-26T00:34:19;98504.50;;;27.29;44.22
76156;BME280;64906;51.290;7.348;2023-06-26T00:36:44;98497.19;;;27.24;44.46
76156;BME280;64906;51.290;7.348;2023-06-26T00:39:10;98497.19;;;27.24;44.17
76156;BME280;64906;51.290;7.348;2023-06-26T00:41:37;98499.28;;;27.27;44.24
76156;BME280;64906;51.290;7.348;2023-06-26T00:44:03;98504.84;;;27.27;44.31
76156;BME280;64906;51.290;7.348;2023-06-26T00:46:29;98500.13;;;27.28;44.07
76156;BME280;64906;51.290;7.348;2023-06-26T00:48:55;98499.28;;;27.27;44.00
76156;BME280;64906;51.290;7.348;2023-06-26T00:51:21;98494.75;;;27.23;44.31
76156;BME280;64906;51.290;7.348;2023-06-26T00:53:47;98497.06;;;27.21;44.39
76156;BME280;64906;51.290;7.348;2023-06-26T00:56:13;98491.88;;;27.19;44.35
76156;BME280;64906;51.290;7.348;2023-06-26T00:58:39;98493.03;;;27.18;44.49
76156;BME280;64906;51.290;7.348;2023-06-26T01:01:04;98490.13;;;27.15;44.42
76156;BME280;64906;51.290;7.348;2023-06-26T01:03:33;98489.31;;;27.14;44.54
76156;BME280;64906;51.290;7.348;2023-06-26T01:05:59;98491.41;;;27.17;44.44
76156;BME280;64906;51.290;7.348;2023-06-26T01:08:25;98485.28;;;27.12;44.28
76156;BME280;64906;51.290;7.348;2023-06-26T01:10:51;98484.94;;;27.13;44.43
76156;BME280;64906;51.290;7.348;2023-06-26T01:13:17;98485.72;;;27.14;44.27
76156;BME280;64906;51.290;7.348;2023-06-26T01:15:42;98480.78;;;27.19;44.18
76156;BME280;64906;51.290;7.348;2023-06-26T01:18:08;98480.19;;;27.14;44.27
76156;BME280;64906;51.290;7.348;2023-06-26T01:20:37;98478.44;;;27.09;44.10
76156;BME280;64906;51.290;7.348;2023-06-26T01:23:16;98473.72;;;27.10;44.42
76156;BME280;64906;51.290;7.348;2023-06-26T01:28:34;98478.78;;;27.08;44.13
76156;BME280;64906;51.290;7.348;2023-06-26T01:31:00;98475.56;;;27.06;44.44
76156;BME280;64906;51.290;7.348;2023-06-26T01:33:27;98467.25;;;27.06;44.22
76156;BME280;64906;51.290;7.348;2023-06-26T01:35:53;98464.47;;;27.06;44.26
76156;BME280;64906;51.290;7.348;2023-06-26T01:38:20;98464.81;;;27.04;44.27
76156;BME280;64906;51.290;7.348;2023-06-26T01:40:46;98463.56;;;27.02;44.38
76156;BME280;64906;51.290;7.348;2023-06-26T01:43:20;98460.91;;;27.05;44.16
76156;BME280;64906;51.290;7.348;2023-06-26T01:45:50;98460.31;;;27.00;44.22
76156;BME280;64906;51.290;7.348;2023-06-26T01:48:19;98456.72;;;26.99;44.42
76156;BME280;64906;51.290;7.348;2023-06-26T01:50:50;98457.88;;;26.98;44.00
76156;BME280;64906;51.290;7.348;2023-06-26T01:53:18;98455.59;;;27.00;44.04
76156;BME280;64906;51.290;7.348;2023-06-26T01:55:52;98457.88;;;26.98;44.02
76156;BME280;64906;51.290;7.348;2023-06-26T01:58:21;98460.31;;;27.00;44.29
76156;BME280;64906;51.290;7.348;2023-06-26T02:00:48;98460.91;;;27.05;44.12
76156;BME280;64906;51.290;7.348;2023-06-26T02:03:13;98451.88;;;26.96;44.17
76156;BME280;64906;51.290;7.348;2023-06-26T02:05:39;98454.28;;;26.98;44.39
76156;BME280;64906;51.290;7.348;2023-06-26T02:08:04;98447.28;;;27.00;44.14
76156;BME280;64906;51.290;7.348;2023-06-26T02:10:30;98453.94;;;26.99;43.99
76156;BME280;64906;51.290;7.348;2023-06-26T02:12:55;98452.69;;;26.97;43.87
76156;BME280;64906;51.290;7.348;2023-06-26T02:15:21;98444.84;;;26.99;44.03
76156;BME280;64906;51.290;7.348;2023-06-26T02:17:47;98448.31;;;26.96;44.24
76156;BME280;64906;51.290;7.348;2023-06-26T02:20:14;98453.03;;;26.95;44.29
76156;BME280;64906;51.290;7.348;2023-06-26T02:22:39;98448.63;;;26.94;44.30
76156;BME280;64906;51.290;7.348;2023-06-26T02:25:05;98445.75;;;26.91;44.35
76156;BME280;64906;51.290;7.348;2023-06-26T02:27:30;98449.31;;;26.91;44.13
76156;BME280;64906;51.290;7.348;2023-06-26T02:29:55;98442.16;;;26.90;44.16
76156;BME280;64906;51.290;7.348;2023-06-26T02:32:21;98446.91;;;26.90;44.42
76156;BME280;64906;51.290;7.348;2023-06-26T02:34:46;98450.00;;;26.88;44.26
76156;BME280;64906;51.290;7.348;2023-06-26T02:37:11;98455.69;;;26.92;44.14
76156;BME280;64906;51.290;7.348;2023-06-26T02:39:37;98450.81;;;26.89;44.15
76156;BME280;64906;51.290;7.348;2023-06-26T02:42:02;98457.06;;;26.86;44.28
76156;BME280;64906;51.290;7.348;2023-06-26T02:44:27;98450.34;;;26.87;44.25
76156;BME280;64906;51.290;7.348;2023-06-26T02:46:53;98455.41;;;26.85;44.34
76156;BME280;64906;51.290;7.348;2023-06-26T02:49:18;98449.53;;;26.86;44.25
76156;BME280;64906;51.290;7.348;2023-06-26T02:51:43;98450.69;;;26.85;44.57
76156;BME280;64906;51.290;7.348;2023-06-26T02:54:08;98454.72;;;26.88;44.06
76156;BME280;64906;51.290;7.348;2023-06-26T02:56:34;98447.94;;;26.85;44.25
76156;BME280;64906;51.290;7.348;2023-06-26T02:58:59;98452.78;;;26.88;44.25
76156;BME280;64906;51.290;7.348;2023-06-26T03:01:24;98454.63;;;26.84;44.18
76156;BME280;64906;51.290;7.348;2023-06-26T03:03:50;98453.00;;;26.83;44.56
76156;BME280;64906;51.290;7.348;2023-06-26T03:06:16;98460.19;;;26.84;44.43
76156;BME280;64906;51.290;7.348;2023-06-26T03:08:41;98460.19;;;26.84;44.15
76156;BME280;64906;51.290;7.348;2023-06-26T03:11:07;98463.59;;;26.81;44.48
76156;BME280;64906;51.290;7.348;2023-06-26T03:13:34;98464.41;;;26.82;44.27
76156;BME280;64906;51.290;7.348;2023-06-26T03:16:00;98461.03;;;26.76;44.39
76156;BME280;64906;51.290;7.348;2023-06-26T03:18:25;98453.91;;;26.75;44.58
76156;BME280;64906;51.290;7.348;2023-06-26T03:20:51;98468.56;;;26.76;44.49
76156;BME280;64906;51.290;7.348;2023-06-26T03:23:16;98471.69;;;26.74;44.33
76156;BME280;64906;51.290;7.348;2023-06-26T03:25:41;98473.41;;;26.79;44.29
76156;BME280;64906;51.290;7.348;2023-06-26T03:28:07;98471.69;;;26.74;44.36
76156;BME280;64906;51.290;7.348;2023-06-26T03:30:32;98480.22;;;26.81;44.07
76156;BME280;64906;51.290;7.348;2023-06-26T03:32:57;98474.09;;;26.76;44.76
76156;BME280;64906;51.290;7.348;2023-06-26T03:35:22;98481.25;;;26.77;44.33
76156;BME280;64906;51.290;7.348;2023-06-26T03:37:49;98478.34;;;26.73;44.62
76156;BME280;64906;51.290;7.348;2023-06-26T03:40:14;98471.69;;;26.74;44.12
76156;BME280;64906;51.290;7.348;2023-06-26T03:42:39;98481.47;;;26.72;44.40
76156;BME280;64906;51.290;7.348;2023-06-26T03:45:05;98483.53;;;26.75;44.36
76156;BME280;64906;51.290;7.348;2023-06-26T03:47:31;98484.38;;;26.75;44.55
76156;BME280;64906;51.290;7.348;2023-06-26T03:49:56;98492.53;;;26.72;44.64
76156;BME280;64906;51.290;7.348;2023-06-26T03:52:21;98496.59;;;26.74;44.36
76156;BME280;64906;51.290;7.348;2023-06-26T03:54:46;98492.47;;;26.80;43.97
76156;BME280;64906;51.290;7.348;2023-06-26T03:57:13;98495.09;;;26.77;44.18
76156;BME280;64906;51.290;7.348;2023-06-26T03:59:38;98487.88;;;26.84;44.23
76156;BME280;64906;51.290;7.348;2023-06-26T04:02:04;98490.38;;;26.77;44.25
76156;BME280;64906;51.290;7.348;2023-06-26T04:04:29;98488.09;;;26.79;44.05
76156;BME280;64906;51.290;7.348;2023-06-26T04:06:55;98491.19;;;26.78;44.20
76156;BME280;64906;51.290;7.348;2023-06-26T04:09:20;98486.56;;;26.82;44.12
76156;BME280;64906;51.290;7.348;2023-06-26T04:11:45;98489.69;;;26.80;44.24
76156;BME280;64906;51.290;7.348;2023-06-26T04:14:10;98492.25;;;26.85;44.19
76156;BME280;64906;51.290;7.348;2023-06-26T04:16:36;98489.47;;;26.85;44.06
76156;BME280;64906;51.290;7.348;2023-06-26T04:19:02;98495.72;;;26.94;43.92
76156;BME280;64906;51.290;7.348;2023-06-26T04:21:29;98504.84;;;26.95;43.43
76156;BME280;64906;51.290;7.348;2023-06-26T04:23:54;98492.38;;;26.89;43.58
76156;BME280;64906;51.290;7.348;2023-06-26T04:26:20;98508.41;;;26.83;43.45
76156;BME280;64906;51.290;7.348;2023-06-26T04:28:45;98503.94;;;26.91;43.56
76156;BME280;64906;51.290;7.348;2023-06-26T04:31:10;98502.91;;;26.95;43.73
76156;BME280;64906;51.290;7.348;2023-06-26T04:33:36;98508.91;;;26.97;43.75
76156;BME280;64906;51.290;7.348;2023-06-26T04:36:03;98506.94;;;26.98;43.81
76156;BME280;64906;51.290;7.348;2023-06-26T04:38:29;98504.97;;;26.98;43.91
76156;BME280;64906;51.290;7.348;2023-06-26T04:40:55;98507.41;;;27.00;43.99
76156;BME280;64906;51.290;7.348;2023-06-26T04:43:20;98512.94;;;27.00;43.91
76156;BME280;64906;51.290;7.348;2023-06-26T04:45:45;98506.16;;;27.09;44.07
76156;BME280;64906;51.290;7.348;2023-06-26T04:48:10;98518.88;;;27.10;44.20
76156;BME280;64906;51.290;7.348;2023-06-26T04:50:36;98511.56;;;27.06;43.85
76156;BME280;64906;51.290;7.348;2023-06-26T04:53:01;98523.47;;;27.06;43.75
76156;BME280;64906;51.290;7.348;2023-06-26T04:55:27;98521.66;;;27.10;44.18
76156;BME280;64906;51.290;7.348;2023-06-26T04:57:53;98521.09;;;27.17;43.78
76156;BME280;64906;51.290;7.348;2023-06-26T05:00:18;98528.59;;;27.16;44.23
76156;BME280;64906;51.290;7.348;2023-06-26T05:02:44;98526.97;;;27.15;43.77
76156;BME280;64906;51.290;7.348;2023-06-26T05:05:13;98524.88;;;27.12;43.76
76156;BME280;64906;51.290;7.348;2023-06-26T05:07:41;98526.72;;;27.08;43.83
76156;BME280;64906;51.290;7.348;2023-06-26T05:10:08;98532.34;;;27.00;44.06
76156;BME280;64906;51.290;7.348;2023-06-26T05:12:33;98531.22;;;27.13;44.13
76156;BME280;64906;51.290;7.348;2023-06-26T05:14:59;98536.44;;;27.14;44.09
76156;BME280;64906;51.290;7.348;2023-06-26T05:17:28;98538.28;;;27.10;44.20
76156;BME280;64906;51.290;7.348;2023-06-26T05:19:53;98549.81;;;27.12;44.26
76156;BME280;64906;51.290;7.348;2023-06-26T05:22:19;98545.91;;;27.13;44.13
76156;BME280;64906;51.290;7.348;2023-06-26T05:24:46;98554.09;;;27.10;44.14
76156;BME280;64906;51.290;7.348;2023-06-26T05:27:13;98538.06;;;27.15;43.97
76156;BME280;64906;51.290;7.348;2023-06-26T05:29:46;98535.88;;;27.21;44.06
76156;BME280;64906;51.290;7.348;2023-06-26T05:32:15;98536.34;;;27.23;43.99
76156;BME280;64906;51.290;7.348;2023-06-26T05:34:42;98541.06;;;27.22;43.96
76156;BME280;64906;51.290;7.348;2023-06-26T05:37:09;98544.78;;;27.26;44.03
76156;BME280;64906;51.290;7.348;2023-06-26T05:39:34;98546.16;;;27.20;44.11
76156;BME280;64906;51.290;7.348;2023-06-26T05:42:00;98546.47;;;27.19;44.08
76156;BME280;64906;51.290;7.348;2023-06-26T05:44:25;98544.53;;;27.19;43.96
76156;BME280;64906;51.290;7.348;2023-06-26T05:46:50;98545.47;;;27.23;44.08
76156;BME280;64906;51.290;7.348;2023-06-26T05:49:16;98556.09;;;27.21;44.04
76156;BME280;64906;51.290;7.348;2023-06-26T05:51:41;98543.03;;;27.22;44.12
76156;BME280;64906;51.290;7.348;2023-06-26T05:54:07;98538.22;;;27.31;44.18
76156;BME280;64906;51.290;7.348;2023-06-26T05:56:33;98544.50;;;27.40;43.88
76156;BME280;64906;51.290;7.348;2023-06-26T05:58:58;98553.94;;;27.39;43.82
76156;BME280;64906;51.290;7.348;2023-06-26T06:01:24;98554.91;;;27.43;43.89
76156;BME280;64906;51.290;7.348;2023-06-26T06:03:49;98571.31;;;27.48;43.50
76156;BME280;64906;51.290;7.348;2023-06-26T06:06:14;98566.78;;;27.43;43.99
76156;BME280;64906;51.290;7.348;2023-06-26T06:08:41;98575.44;;;27.42;44.11
76156;BME280;64906;51.290;7.348;2023-06-26T06:11:06;98577.06;;;27.43;43.87
76156;BME280;64906;51.290;7.348;2023-06-26T06:13:32;98588.50;;;27.41;43.82
76156;BME280;64906;51.290;7.348;2023-06-26T06:15:57;98588.84;;;27.40;44.06
76156;BME280;64906;51.290;7.348;2023-06-26T06:18:23;98588.50;;;27.41;44.42
76156;BME280;64906;51.290;7.348;2023-06-26T06:20:48;98585.19;;;27.48;43.78
76156;BME280;64906;51.290;7.348;2023-06-26T06:23:14;98579.06;;;27.54;43.74
76156;BME280;64906;51.290;7.348;2023-06-26T06:25:39;98581.63;;;27.59;43.48
76156;BME280;64906;51.290;7.348;2023-06-26T06:28:05;98581.63;;;27.59;43.60
76156;BME280;64906;51.290;7.348;2023-06-26T06:30:30;98583.91;;;27.57;43.79
76156;BME280;64906;51.290;7.348;2023-06-26T06:32:56;98586.56;;;27.54;43.54
76156;BME280;64906;51.290;7.348;2023-06-26T06:35:21;98590.59;;;27.56;43.81
76156;BME280;64906;51.290;7.348;2023-06-26T06:37:46;98598.34;;;27.51;43.61
76156;BME280;64906;51.290;7.348;2023-06-26T06:40:12;98596.94;;;27.45;43.80
76156;BME280;64906;51.290;7.348;2023-06-26T06:42:40;98589.91;;;27.47;43.55
76156;BME280;64906;51.290;7.348;2023-06-26T06:45:06;98612.78;;;27.56;43.68
76156;BME280;64906;51.290;7.348;2023-06-26T06:47:32;98606.56;;;27.59;43.65
76156;BME280;64906;51.290;7.348;2023-06-26T06:49:57;98587.94;;;27.60;43.55
76156;BME280;64906;51.290;7.348;2023-06-26T06:52:24;98591.19;;;27.62;43.40
76156;BME280;64906;51.290;7.348;2023-06-26T06:54:57;98591.44;;;27.69;43.25
76156;BME280;64906;51.290;7.348;2023-06-26T06:57:26;98592.50;;;27.64;43.42
76156;BME280;64906;51.290;7.348;2023-06-26T06:59:52;98583.13;;;27.69;43.42
76156;BME280;64906;51.290;7.348;2023-06-26T07:02:17;98607.75;;;27.70;43.33
76156;BME280;64906;51.290;7.348;2023-06-26T07:04:42;98603.22;;;27.66;43.51
76156;BME280;64906;51.290;7.348;2023-06-26T07:07:07;98602.53;;;27.69;43.32
76156;BME280;64906;51.290;7.348;2023-06-26T07:09:33;98599.91;;;27.73;43.35
76156;BME280;64906;51.290;7.348;2023-06-26T07:11:59;98609.00;;;27.73;43.13
76156;BME280;64906;51.290;7.348;2023-06-26T07:14:25;98611.78;;;27.73;43.51
76156;BME280;64906;51.290;7.348;2023-06-26T07:16:50;98620.31;;;27.68;43.57
76156;BME280;64906;51.290;7.348;2023-06-26T07:19:15;98637.56;;;27.73;43.43
76156;BME280;64906;51.290;7.348;2023-06-26T07:21:41;98647.06;;;27.73;43.28
76156;BME280;64906;51.290;7.348;2023-06-26T07:24:08;98658.72;;;27.66;43.56
76156;BME280;64906;51.290;7.348;2023-06-26T07:26:33;98648.28;;;27.63;43.63
76156;BME280;64906;51.290;7.348;2023-06-26T07:28:58;98653.94;;;27.54;43.75
76156;BME280;64906;51.290;7.348;2023-06-26T07:31:24;98641.72;;;27.67;43.42
76156;BME280;64906;51.290;7.348;2023-06-26T07:33:49;98659.97;;;27.68;43.44
76156;BME280;64906;51.290;7.348;2023-06-26T07:36:14;98673.16;;;27.71;43.50
76156;BME280;64906;51.290;7.348;2023-06-26T07:38:40;98664.81;;;27.71;43.44
76156;BME280;64906;51.290;7.348;2023-06-26T07:41:05;98656.88;;;27.82;43.45
76156;BME280;64906;51.290;7.348;2023-06-26T07:43:31;98667.84;;;27.79;43.27
76156;BME280;64906;51.290;7.348;2023-06-26T07:45:56;98654.47;;;27.81;43.48
76156;BME280;64906;51.290;7.348;2023-06-26T07:48:24;98663.34;;;27.86;43.18
76156;BME280;64906;51.290;7.348;2023-06-26T07:50:49;98658.28;;;27.88;42.95
76156;BME280;64906;51.290;7.348;2023-06-26T07:53:15;98650.28;;;27.87;43.37
76156;BME280;64906;51.290;7.348;2023-06-26T07:55:40;98650.66;;;27.85;43.16
76156;BME280;64906;51.290;7.348;2023-06-26T07:58:07;98641.03;;;27.83;43.29
76156;BME280;64906;51.290;7.348;2023-06-26T08:00:32;98654.06;;;27.91;43.21
76156;BME280;64906;51.290;7.348;2023-06-26T08:02:57;98648.81;;;27.89;43.27
76156;BME280;64906;51.290;7.348;2023-06-26T08:05:23;98651.28;;;27.91;43.13
76156;BME280;64906;51.290;7.348;2023-06-26T08:07:48;98648.00;;;27.89;43.31
76156;BME280;64906;51.290;7.348;2023-06-26T08:10:13;98658.91;;;27.94;43.24
76156;BME280;64906;51.290;7.348;2023-06-26T08:12:39;98660.56;;;27.86;43.25
76156;BME280;64906;51.290;7.348;2023-06-26T08:15:06;98662.03;;;27.92;43.22
76156;BME280;64906;51.290;7.348;2023-06-26T08:17:31;98669.78;;;27.99;43.04
76156;BME280;64906;51.290;7.348;2023-06-26T08:19:56;98666.19;;;27.98;43.16
76156;BME280;64906;51.290;7.348;2023-06-26T08:22:22;98665.38;;;27.98;43.29
76156;BME280;64906;51.290;7.348;2023-06-26T08:24:47;98667.78;;;27.99;43.47
76156;BME280;64906;51.290;7.348;2023-06-26T08:27:12;98669.09;;;28.02;43.12
76156;BME280;64906;51.290;7.348;2023-06-26T08:29:38;98664.66;;;28.01;43.23
76156;BME280;64906;51.290;7.348;2023-06-26T08:32:03;98673.34;;;27.99;43.09
76156;BME280;64906;51.290;7.348;2023-06-26T08:34:29;98677.41;;;28.02;43.21
76156;BME280;64906;51.290;7.348;2023-06-26T08:36:54;98696.00;;;28.01;43.26
76156;BME280;64906;51.290;7.348;2023-06-26T08:39:19;98690.94;;;28.03;42.87
76156;BME280;64906;51.290;7.348;2023-06-26T08:41:45;98701.09;;;27.99;43.14
76156;BME280;64906;51.290;7.348;2023-06-26T08:44:10;98709.97;;;27.93;43.33
76156;BME280;64906;51.290;7.348;2023-06-26T08:46:36;98713.72;;;27.97;43.24
76156;BME280;64906;51.290;7.348;2023-06-26T08:49:06;98705.72;;;27.95;43.31
76156;BME280;64906;51.290;7.348;2023-06-26T08:51:37;98716.13;;;27.98;43.42
76156;BME280;64906;51.290;7.348;2023-06-26T08:54:07;98715.78;;;28.00;43.15
76156;BME280;64906;51.290;7.348;2023-06-26T08:56:40;98714.53;;;27.97;43.38
76156;BME280;64906;51.290;7.348;2023-06-26T08:59:07;98718.31;;;27.93;43.50
76156;BME280;64906;51.290;7.348;2023-06-26T09:01:35;98721.28;;;27.88;43.46
76156;BME280;64906;51.290;7.348;2023-06-26T09:04:01;98725.97;;;27.96;43.40
76156;BME280;64906;51.290;7.348;2023-06-26T09:06:27;98722.03;;;27.97;43.26
76156;BME280;64906;51.290;7.348;2023-06-26T09:08:53;98721.81;;;28.02;43.33
76156;BME280;64906;51.290;7.348;2023-06-26T09:11:18;98717.41;;;28.01;43.25
76156;BME280;64906;51.290;7.348;2023-06-26T09:13:44;98718.56;;;28.00;43.24
76156;BME280;64906;51.290;7.348;2023-06-26T09:16:09;98724.69;;;27.93;43.47
76156;BME280;64906;51.290;7.348;2023-06-26T09:18:35;98726.28;;;27.94;43.32
76156;BME280;64906;51.290;7.348;2023-06-26T09:21:06;98723.19;;;27.96;43.11
76156;BME280;64906;51.290;7.348;2023-06-26T09:23:32;98734.97;;;27.93;43.44
76156;BME280;64906;51.290;7.348;2023-06-26T09:25:57;98730.22;;;27.93;43.14
76156;BME280;64906;51.290;7.348;2023-06-26T09:28:22;98726.41;;;27.98;43.30
76156;BME280;64906;51.290;7.348;2023-06-26T09:30:48;98727.22;;;27.98;43.26
76156;BME280;64906;51.290;7.348;2023-06-26T09:33:17;98727.22;;;27.98;43.21
76156;BME280;64906;51.290;7.348;2023-06-26T09:35:46;98729.31;;;28.01;43.17
76156;BME280;64906;51.290;7.348;2023-06-26T09:38:13;98722.63;;;28.02;43.36
76156;BME280;64906;51.290;7.348;2023-06-26T09:40:39;98728.06;;;27.99;43.36
76156;BME280;64906;51.290;7.348;2023-06-26T09:43:05;98742.28;;;27.97;43.20
76156;BME280;64906;51.290;7.348;2023-06-26T09:45:33;98738.34;;;27.98;43.10
76156;BME280;64906;51.290;7.348;2023-06-26T09:48:02;98734.41;;;27.99;43.24
76156;BME280;64906;51.290;7.348;2023-06-26T09:50:28;98734.88;;;28.01;43.43
76156;BME280;64906;51.290;7.348;2023-06-26T09:52:55;98737.50;;;27.98;43.14
76156;BME280;64906;51.290;7.348;2023-06-26T09:55:21;98726.75;;;27.96;43.22
76156;BME280;64906;51.290;7.348;2023-06-26T09:57:50;98727.72;;;28.00;42.97
76156;BME280;64906;51.290;7.348;2023-06-26T10:00:16;98736.59;;;28.06;42.99
76156;BME280;64906;51.290;7.348;2023-06-26T10:02:41;98739.94;;;27.99;43.13
76156;BME280;64906;51.290;7.348;2023-06-26T10:05:07;98755.19;;;27.93;43.28
76156;BME280;64906;51.290;7.348;2023-06-26T10:07:32;98750.47;;;27.94;43.12
76156;BME280;64906;51.290;7.348;2023-06-26T10:10:01;98741.72;;;28.04;43.05
76156;BME280;64906;51.290;7.348;2023-06-26T10:12:29;98741.94;;;28.11;42.85
76156;BME280;64906;51.290;7.348;2023-06-26T10:14:56;98741.72;;;28.04;43.13
76156;BME280;64906;51.290;7.348;2023-06-26T10:17:25;98748.53;;;28.06;42.93
76156;BME280;64906;51.290;7.348;2023-06-26T10:19:53;98757.53;;;28.03;42.78
76156;BME280;64906;51.290;7.348;2023-06-26T10:22:24;98772.69;;;28.06;42.81
76156;BME280;64906;51.290;7.348;2023-06-26T10:24:50;98765.06;;;28.03;42.89
76156;BME280;64906;51.290;7.348;2023-06-26T10:27:18;98761.34;;;27.99;42.68
76156;BME280;64906;51.290;7.348;2023-06-26T10:29:51;98764.25;;;27.82;42.77
76156;BME280;64906;51.290;7.348;2023-06-26T10:32:18;98760.31;;;27.70;42.93
76156;BME280;64906;51.290;7.348;2023-06-26T10:34:43;98766.78;;;27.74;42.32
76156;BME280;64906;51.290;7.348;2023-06-26T10:37:09;98764.09;;;27.66;42.28
76156;BME280;64906;51.290;7.348;2023-06-26T10:39:51;98756.91;;;27.65;42.59
76156;BME280;64906;51.290;7.348;2023-06-26T10:42:20;98756.84;;;27.73;42.12
76156;BME280;64906;51.290;7.348;2023-06-26T10:45:09;98758.28;;;27.59;41.92
76156;BME280;64906;51.290;7.348;2023-06-26T10:47:35;98754.97;;;27.65;41.83
76156;BME280;64906;51.290;7.348;2023-06-26T10:50:34;98758.00;;;27.73;41.48
76156;BME280;64906;51.290;7.348;2023-06-26T10:55:49;98767.88;;;27.61;41.13
76156;BME280;64906;51.290;7.348;2023-06-26T10:58:41;98776.69;;;27.63;41.34
76156;BME280;64906;51.290;7.348;2023-06-26T11:01:25;98781.13;;;27.77;40.75
76156;BME280;64906;51.290;7.348;2023-06-26T11:04:07;98769.38;;;27.59;40.86
76156;BME280;64906;51.290;7.348;2023-06-26T11:06:33;98768.16;;;27.68;40.29
76156;BME280;64906;51.290;7.348;2023-06-26T11:14:19;98764.91;;;27.66;40.60
76156;BME280;64906;51.290;7.348;2023-06-26T11:16:45;98765.03;;;27.70;40.37
76156;BME280;64906;51.290;7.348;2023-06-26T11:19:11;98754.97;;;27.65;40.37
76156;BME280;64906;51.290;7.348;2023-06-26T11:21:37;98760.78;;;27.73;40.33
76156;BME280;64906;51.290;7.348;2023-06-26T11:24:04;98773.00;;;27.71;39.72
76156;BME280;64906;51.290;7.348;2023-06-26T11:26:31;98774.38;;;27.65;40.00
76156;BME280;64906;51.290;7.348;2023-06-26T11:29:02;98771.88;;;27.73;39.88
76156;BME280;64906;51.290;7.348;2023-06-26T11:31:38;98782.88;;;27.81;39.40
76156;BME280;64906;51.290;7.348;2023-06-26T11:34:06;98778.47;;;27.80;39.33
76156;BME280;64906;51.290;7.348;2023-06-26T11:36:32;98786.13;;;27.83;39.12
76156;BME280;64906;51.290;7.348;2023-06-26T11:39:04;98787.75;;;27.84;39.48
76156;BME280;64906;51.290;7.348;2023-06-26T11:41:36;98767.03;;;27.82;39.42
76156;BME280;64906;51.290;7.348;2023-06-26T11:44:04;98771.66;;;27.78;39.51
76156;BME280;64906;51.290;7.348;2023-06-26T11:46:30;98769.34;;;27.80;39.45
76156;BME280;64906;51.290;7.348;2023-06-26T11:48:55;98782.75;;;27.78;39.49
76156;BME280;64906;51.290;7.348;2023-06-26T11:51:20;98786.41;;;27.69;39.20
76156;BME280;64906;51.290;7.348;2023-06-26T11:53:47;98785.84;;;27.76;39.24
76156;BME280;64906;51.290;7.348;2023-06-26T11:56:14;98801.91;;;27.70;39.37
76156;BME280;64906;51.290;7.348;2023-06-26T11:59:05;98810.56;;;27.69;39.36
76156;BME280;64906;51.290;7.348;2023-06-26T12:01:38;98813.94;;;27.74;39.08
76156;BME280;64906;51.290;7.348;2023-06-26T12:04:05;98800.13;;;27.87;39.46
76156;BME280;64906;51.290;7.348;2023-06-26T12:06:42;98797.28;;;27.74;39.51
76156;BME280;64906;51.290;7.348;2023-06-26T12:09:09;98806.16;;;27.89;39.30
76156;BME280;64906;51.290;7.348;2023-06-26T12:11:38;98808.41;;;27.95;38.87
76156;BME280;64906;51.290;7.348;2023-06-26T12:14:05;98813.38;;;27.81;39.20
76156;BME280;64906;51.290;7.348;2023-06-26T12:16:30;98813.25;;;27.98;39.01
76156;BME280;64906;51.290;7.348;2023-06-26T12:19:03;98817.88;;;27.73;39.42
76156;BME280;64906;51.290;7.348;2023-06-26T12:24:03;98816.84;;;27.78;39.51
76156;BME280;64906;51.290;7.348;2023-06-26T12:26:29;98813.47;;;27.73;39.18
76156;BME280;64906;51.290;7.348;2023-06-26T12:29:02;98810.75;;;27.85;39.13
76156;BME280;64906;51.290;7.348;2023-06-26T12:31:28;98809.75;;;27.68;39.28
76156;BME280;64906;51.290;7.348;2023-06-26T12:33:53;98827.22;;;27.69;39.19
76156;BME280;64906;51.290;7.348;2023-06-26T12:36:19;98824.81;;;27.80;38.96
76156;BME280;64906;51.290;7.348;2023-06-26T12:38:45;98818.59;;;27.83;38.94
76156;BME280;64906;51.290;7.348;2023-06-26T12:41:14;98827.47;;;27.97;38.66
76156;BME280;64906;51.290;7.348;2023-06-26T12:43:40;98821.31;;;27.91;39.42
76156;BME280;64906;51.290;7.348;2023-06-26T12:46:06;98837.63;;;27.93;38.66
76156;BME280;64906;51.290;7.348;2023-06-26T12:48:42;98854.00;;;27.86;38.35
76156;BME280;64906;51.290;7.348;2023-06-26T12:51:15;98866.53;;;27.92;38.46
76156;BME280;64906;51.290;7.348;2023-06-26T12:53:41;98870.16;;;28.04;38.16
76156;BME280;64906;51.290;7.348;2023-06-26T12:56:10;98865.91;;;28.07;37.97
76156;BME280;64906;51.290;7.348;2023-06-26T12:58:37;98866.06;;;28.10;38.16
76156;BME280;64906;51.290;7.348;2023-06-26T13:01:07;98865.50;;;28.17;37.41
76156;BME280;64906;51.290;7.348;2023-06-26T13:03:38;98862.88;;;28.00;35.96
76156;BME280;64906;51.290;7.348;2023-06-26T13:06:04;98869.50;;;27.87;36.06
76156;BME280;64906;51.290;7.348;2023-06-26T13:08:29;98872.09;;;27.92;37.00
76156;BME280;64906;51.290;7.348;2023-06-26T13:10:54;98865.88;;;27.86;35.80